McAlister, New Mexico
Current Conditions -  °F | °C
As of 6:56 AM on Friday 24 Oct 2014 (Local Time) from K4MR Reporting Station
Clear Clear  
Wind Chill: 50°   Ceiling: Unl
Heat Index: 50°   Visibility: 10mi
Dew Point: 47°   Wind: 9mph
Humidity: 89%   Direction: 210°SSW
Pressure: 30.2"   Gusts: NA
Location:  34.69°N, 103.78°W
Report Text: K4MR 241256Z AUTO 21008KT 10SM CLR 10/09 A3020 RMK AO2 SLP194 T01020085
Loading
Personal Weather Stations






























Interactive Weather Map
Tropical Storm Tracking
New forecast layout! Learn more

10-Day Weather Forecast

Advertisements
Track Severe Weather on mobile